Time;durP1;ratioP1;P1;durP2;ratioP2;P2;SDS_P1;SDS_P2;PMS_P1;PMS_P2;Temp;Humidity;BMP_temperature;BMP_pressure;BME280_temperature;BME280_humidity;BME280_pressure;Samples;Min_cycle;Max_cycle;Signal;HPM_P1;HPM_P2
2023/07/06 00:02:21;;;;;;;3.63;2.15;;;19.70;76.60;;;;;;5047199;28;20028;-75
2023/07/06 00:04:46;;;;;;;6.55;2.13;;;19.70;76.70;;;;;;5045219;28;20422;-76
2023/07/06 00:07:18;;;;;;;3.50;1.83;;;19.70;76.60;;;;;;5046519;28;20056;-75
2023/07/06 00:09:45;;;;;;;6.70;2.22;;;19.70;76.60;;;;;;5045640;28;20382;-75
2023/07/06 00:12:10;;;;;;;2.75;1.77;;;19.70;76.60;;;;;;5042056;28;20025;-75
2023/07/06 00:14:36;;;;;;;4.55;1.90;;;19.70;76.80;;;;;;5045480;28;20151;-75
2023/07/06 00:17:12;;;;;;;4.05;1.92;;;19.70;76.70;;;;;;5045598;28;20370;-75
2023/07/06 00:19:39;;;;;;;7.55;2.25;;;19.70;76.80;;;;;;5046031;28;20059;-75
2023/07/06 00:22:06;;;;;;;3.22;1.88;;;19.70;76.80;;;;;;5045033;28;20032;-75
2023/07/06 00:24:31;;;;;;;7.40;1.92;;;19.70;76.80;;;;;;5047480;28;20074;-74
2023/07/06 00:26:57;;;;;;;11.18;2.30;;;19.70;76.80;;;;;;5041708;28;20029;-75
2023/07/06 00:29:23;;;;;;;2.95;1.88;;;19.70;76.80;;;;;;5043538;28;20086;-75
2023/07/06 00:31:53;;;;;;;2.92;1.90;;;19.60;76.80;;;;;;5040675;28;20040;-75
2023/07/06 00:34:19;;;;;;;4.10;1.75;;;19.60;76.70;;;;;;5043873;28;20037;-75
2023/07/06 00:36:48;;;;;;;4.55;2.05;;;19.60;76.70;;;;;;5043202;28;20055;-75
2023/07/06 00:39:14;;;;;;;4.72;1.60;;;19.70;76.70;;;;;;5047982;28;20017;-75
2023/07/06 00:41:40;;;;;;;2.97;1.85;;;19.60;76.70;;;;;;5029724;28;20025;-75
2023/07/06 00:44:45;;;;;;;10.77;2.83;;;19.60;76.70;;;;;;5046334;28;20014;-76
2023/07/06 00:47:12;;;;;;;4.43;1.80;;;19.60;76.60;;;;;;5043076;28;20431;-75
2023/07/06 00:49:39;;;;;;;2.95;2.22;;;19.60;76.70;;;;;;5044687;28;20449;-76
2023/07/06 00:52:06;;;;;;;4.03;2.10;;;19.60;76.60;;;;;;5043985;28;20067;-75
2023/07/06 00:54:35;;;;;;;7.40;1.77;;;19.60;76.60;;;;;;5046973;28;20017;-76
2023/07/06 00:57:02;;;;;;;4.55;1.92;;;19.60;76.60;;;;;;5044354;28;20033;-75
2023/07/06 00:59:30;;;;;;;2.50;1.95;;;19.60;76.60;;;;;;5039753;28;20559;-75
2023/07/06 01:01:59;;;;;;;8.45;2.20;;;19.60;76.60;;;;;;5040701;28;20082;-75
2023/07/06 01:04:30;;;;;;;4.47;2.25;;;19.60;76.60;;;;;;5039686;28;20028;-75
2023/07/06 01:06:56;;;;;;;1.80;1.60;;;19.60;76.60;;;;;;5037358;28;20036;-75
2023/07/06 01:09:25;;;;;;;5.53;2.47;;;19.60;76.50;;;;;;5039076;28;20029;-75
2023/07/06 01:11:55;;;;;;;6.65;2.20;;;19.60;76.50;;;;;;5041570;28;20140;-75
2023/07/06 01:14:21;;;;;;;2.65;1.85;;;19.60;76.50;;;;;;5037156;28;20499;-75
2023/07/06 01:16:59;;;;;;;5.47;1.80;;;19.60;76.50;;;;;;5039834;28;20120;-75
2023/07/06 01:19:30;;;;;;;3.25;2.00;;;19.60;76.50;;;;;;5034928;28;20036;-75
2023/07/06 01:22:09;;;;;;;2.60;1.73;;;19.60;76.50;;;;;;5034751;28;20029;-75
2023/07/06 01:24:36;;;;;;;5.70;2.00;;;19.50;76.40;;;;;;5038017;28;20099;-75
2023/07/06 01:27:27;;;;;;;3.90;2.03;;;19.60;76.50;;;;;;5041136;28;20052;-75
2023/07/06 01:30:18;;;;;;;4.10;1.75;;;19.60;76.50;;;;;;5034290;28;20029;-75
2023/07/06 01:32:59;;;;;;;7.10;1.83;;;19.60;76.50;;;;;;5034022;28;20047;-75
2023/07/06 01:35:39;;;;;;;4.95;1.85;;;19.60;76.30;;;;;;5039364;28;20040;-75
2023/07/06 01:38:05;;;;;;;3.00;1.70;;;19.50;76.30;;;;;;5041511;28;20084;-75
2023/07/06 01:40:33;;;;;;;4.10;1.77;;;19.60;76.40;;;;;;5036561;28;20048;-75
2023/07/06 01:42:59;;;;;;;4.38;1.77;;;19.60;76.30;;;;;;5042712;28;20052;-75
2023/07/06 01:45:25;;;;;;;5.15;1.70;;;19.50;76.30;;;;;;5038651;28;20021;-75
2023/07/06 01:47:57;;;;;;;2.70;1.67;;;19.50;76.20;;;;;;5040516;28;20432;-75
2023/07/06 01:50:46;;;;;;;6.90;1.98;;;19.50;76.30;;;;;;5038335;28;20032;-75
2023/07/06 01:53:33;;;;;;;3.72;1.52;;;19.50;76.30;;;;;;5037169;28;20029;-75
2023/07/06 01:56:10;;;;;;;5.25;1.90;;;19.50;76.20;;;;;;5038439;28;20032;-75
2023/07/06 01:59:00;;;;;;;2.55;1.70;;;19.60;76.30;;;;;;5045750;28;20037;-75
2023/07/06 02:01:39;;;;;;;2.80;1.33;;;19.50;76.20;;;;;;5037257;28;20033;-75
2023/07/06 02:04:07;;;;;;;3.72;2.10;;;19.50;76.20;;;;;;5038143;28;20029;-74
2023/07/06 02:06:35;;;;;;;3.55;1.88;;;19.50;76.20;;;;;;5037728;28;20016;-75
2023/07/06 02:09:02;;;;;;;3.42;1.88;;;19.50;76.10;;;;;;5038141;28;20029;-75
2023/07/06 02:11:28;;;;;;;6.28;2.03;;;19.50;76.20;;;;;;5044295;28;20025;-75
2023/07/06 02:13:53;;;;;;;5.88;1.80;;;19.50;76.20;;;;;;5046349;28;20087;-75
2023/07/06 02:16:19;;;;;;;3.53;1.90;;;19.50;76.20;;;;;;5042277;28;20075;-74
2023/07/06 02:18:45;;;;;;;5.05;1.80;;;19.50;76.20;;;;;;5042238;28;20585;-75
2023/07/06 02:21:11;;;;;;;2.65;1.70;;;19.50;76.20;;;;;;5039247;28;20102;-75
2023/07/06 02:23:37;;;;;;;4.45;2.00;;;19.50;76.10;;;;;;5039415;28;20099;-75
2023/07/06 02:26:03;;;;;;;5.65;2.00;;;19.50;76.20;;;;;;5043651;28;20028;-75
2023/07/06 02:28:29;;;;;;;2.53;1.60;;;19.50;76.20;;;;;;5041697;28;20032;-75
2023/07/06 02:30:58;;;;;;;3.03;1.90;;;19.50;76.10;;;;;;5029458;28;20017;-75
2023/07/06 02:33:25;;;;;;;3.92;1.75;;;19.50;76.10;;;;;;5041484;28;20033;-74
2023/07/06 02:35:51;;;;;;;2.03;1.67;;;19.50;76.00;;;;;;5045082;28;20378;-75
2023/07/06 02:38:18;;;;;;;4.20;1.92;;;19.50;76.00;;;;;;5043343;28;20100;-75
2023/07/06 02:40:46;;;;;;;3.45;1.95;;;19.50;76.00;;;;;;5045292;28;20045;-75
2023/07/06 02:43:12;;;;;;;3.67;1.75;;;19.50;76.00;;;;;;5044991;28;20073;-75
2023/07/06 02:45:37;;;;;;;6.20;1.88;;;19.50;76.00;;;;;;5033678;28;20021;-75
2023/07/06 02:48:04;;;;;;;6.15;2.33;;;19.50;76.00;;;;;;5043615;28;20544;-75
2023/07/06 02:50:30;;;;;;;5.20;1.77;;;19.50;75.90;;;;;;5044413;28;20075;-75
2023/07/06 02:52:56;;;;;;;2.92;1.70;;;19.50;75.90;;;;;;5043674;28;20021;-75
2023/07/06 02:55:26;;;;;;;3.25;1.58;;;19.50;75.90;;;;;;5043918;28;20032;-75
2023/07/06 02:57:52;;;;;;;7.32;1.85;;;19.50;75.80;;;;;;5046256;28;20131;-74
2023/07/06 03:00:17;;;;;;;2.45;1.63;;;19.50;75.90;;;;;;5045633;28;20569;-75
2023/07/06 03:02:44;;;;;;;5.88;2.45;;;19.50;75.90;;;;;;5042444;28;20029;-75
2023/07/06 03:05:11;;;;;;;3.90;2.15;;;19.50;75.80;;;;;;5044019;28;20025;-74
2023/07/06 03:07:37;;;;;;;2.90;1.60;;;19.50;75.80;;;;;;5047213;28;20025;-75
2023/07/06 03:10:04;;;;;;;4.70;1.85;;;19.50;75.90;;;;;;5045982;28;20026;-75
2023/07/06 03:12:33;;;;;;;3.75;1.85;;;19.50;75.80;;;;;;5044857;28;20044;-75
2023/07/06 03:15:00;;;;;;;5.13;2.17;;;19.40;75.80;;;;;;5042142;28;20412;-75
2023/07/06 03:17:25;;;;;;;4.95;2.10;;;19.50;75.80;;;;;;5044435;28;20029;-75
2023/07/06 03:19:52;;;;;;;4.47;2.42;;;19.40;75.80;;;;;;5031096;28;20115;-75
2023/07/06 03:22:18;;;;;;;6.60;2.10;;;19.40;75.80;;;;;;5046199;28;20033;-75
2023/07/06 03:24:46;;;;;;;4.53;1.98;;;19.40;75.80;;;;;;5047885;28;20029;-75
2023/07/06 03:27:12;;;;;;;4.03;1.90;;;19.50;75.80;;;;;;5046062;28;20026;-75
2023/07/06 03:29:37;;;;;;;4.28;2.70;;;19.40;75.70;;;;;;5042811;28;20029;-75
2023/07/06 03:32:04;;;;;;;4.40;2.20;;;19.40;75.60;;;;;;5042289;28;20025;-75
2023/07/06 03:34:30;;;;;;;3.47;1.45;;;19.40;75.60;;;;;;5044189;28;20095;-75
2023/07/06 03:36:55;;;;;;;2.83;1.60;;;19.40;75.60;;;;;;5038367;28;20081;-75
2023/07/06 03:39:21;;;;;;;6.07;2.20;;;19.40;75.60;;;;;;5041997;28;20017;-75
2023/07/06 03:41:46;;;;;;;4.95;2.08;;;19.40;75.60;;;;;;5043890;28;20013;-75
2023/07/06 03:44:12;;;;;;;9.98;1.90;;;19.40;75.60;;;;;;5042436;28;20026;-75
2023/07/06 03:46:38;;;;;;;4.40;2.13;;;19.40;75.60;;;;;;5040323;28;20030;-75
2023/07/06 03:49:05;;;;;;;3.10;1.83;;;19.40;75.60;;;;;;5040302;28;20025;-74
2023/07/06 03:51:31;;;;;;;4.28;2.50;;;19.40;75.50;;;;;;5039725;28;20030;-74
2023/07/06 03:53:57;;;;;;;5.53;2.25;;;19.40;75.60;;;;;;5039983;28;20051;-75
2023/07/06 03:56:27;;;;;;;7.00;2.45;;;19.40;75.60;;;;;;5038921;28;20033;-75
2023/07/06 03:58:56;;;;;;;3.72;2.17;;;19.40;75.50;;;;;;5041301;28;20025;-74
2023/07/06 04:01:22;;;;;;;11.00;2.47;;;19.40;75.60;;;;;;5040504;28;20457;-75
2023/07/06 04:03:49;;;;;;;5.72;1.88;;;19.40;75.60;;;;;;5029195;28;20500;-74
2023/07/06 04:06:15;;;;;;;4.55;2.42;;;19.40;75.60;;;;;;5037119;28;20498;-74
2023/07/06 04:08:41;;;;;;;2.70;1.95;;;19.40;75.60;;;;;;5043183;28;20139;-75
2023/07/06 04:11:07;;;;;;;3.28;2.08;;;19.40;75.60;;;;;;5037718;28;20074;-74
2023/07/06 04:13:32;;;;;;;5.22;1.95;;;19.40;75.60;;;;;;5036086;28;20088;-74
2023/07/06 04:15:58;;;;;;;3.30;1.92;;;19.40;75.50;;;;;;5039147;28;20282;-75
2023/07/06 04:18:24;;;;;;;3.17;1.98;;;19.40;76.30;;;;;;5037915;28;20029;-75
2023/07/06 04:20:50;;;;;;;7.57;2.30;;;19.40;75.60;;;;;;5039196;28;20094;-75
2023/07/06 04:23:15;;;;;;;7.95;2.40;;;19.40;75.50;;;;;;5037551;28;20026;-75
2023/07/06 04:25:41;;;;;;;6.78;2.15;;;19.40;75.60;;;;;;5039038;28;20025;-75
2023/07/06 04:28:10;;;;;;;4.53;2.10;;;19.40;75.60;;;;;;5041771;28;20021;-73
2023/07/06 04:30:38;;;;;;;4.05;2.22;;;19.40;75.60;;;;;;5042767;28;20026;-75
2023/07/06 04:33:06;;;;;;;6.88;2.00;;;19.40;75.60;;;;;;5042489;28;20017;-74
2023/07/06 04:35:32;;;;;;;3.20;2.10;;;19.40;75.60;;;;;;5043210;28;20474;-75
2023/07/06 04:38:01;;;;;;;12.15;2.25;;;19.40;75.60;;;;;;5040378;28;20033;-74
2023/07/06 04:40:28;;;;;;;4.95;1.98;;;19.40;75.60;;;;;;5035629;28;20025;-75
2023/07/06 04:42:54;;;;;;;5.13;2.17;;;19.40;75.60;;;;;;5043696;28;20021;-75
2023/07/06 04:45:21;;;;;;;3.20;2.20;;;19.40;75.60;;;;;;5034185;28;20056;-75
2023/07/06 04:47:57;;;;;;;2.83;1.95;;;19.40;75.60;;;;;;5046130;28;20366;-74
2023/07/06 04:50:22;;;;;;;2.30;1.70;;;19.40;75.60;;;;;;5041266;28;20037;-74
2023/07/06 04:52:55;;;;;;;4.05;1.92;;;19.40;75.60;;;;;;5041052;28;20436;-75
2023/07/06 04:55:24;;;;;;;5.38;2.08;;;19.30;74.60;;;;;;5042470;28;20029;-75
2023/07/06 04:57:55;;;;;;;3.20;2.10;;;19.20;74.80;;;;;;5037890;28;20032;-74
2023/07/06 05:00:24;;;;;;;4.80;2.40;;;19.30;75.00;;;;;;5046981;28;20283;-75
2023/07/06 05:02:55;;;;;;;7.35;2.28;;;19.30;74.90;;;;;;5044417;28;20036;-74
2023/07/06 05:05:22;;;;;;;3.70;1.90;;;19.30;74.80;;;;;;5043079;28;20042;-75
2023/07/06 05:07:48;;;;;;;4.80;2.60;;;19.30;74.70;;;;;;5038867;28;20083;-75
2023/07/06 05:10:15;;;;;;;7.38;2.70;;;19.30;74.70;;;;;;5041947;28;20013;-75
2023/07/06 05:12:42;;;;;;;13.55;3.45;;;19.40;74.80;;;;;;5038273;28;20021;-75
2023/07/06 05:15:08;;;;;;;9.05;3.08;;;19.40;75.30;;;;;;5042031;28;20600;-75
2023/07/06 05:17:34;;;;;;;5.72;2.38;;;19.40;74.80;;;;;;5047943;28;20026;-76
2023/07/06 05:20:00;;;;;;;4.78;2.53;;;19.40;74.90;;;;;;5040868;28;20033;-75
2023/07/06 05:22:26;;;;;;;6.82;2.40;;;19.40;74.80;;;;;;5040486;28;20044;-75
2023/07/06 05:24:52;;;;;;;11.55;2.90;;;19.40;74.80;;;;;;5047343;28;20029;-75
2023/07/06 05:27:19;;;;;;;8.93;2.80;;;19.40;74.80;;;;;;5040032;28;20037;-75
2023/07/06 05:29:44;;;;;;;11.95;3.40;;;19.50;74.90;;;;;;5046549;28;20098;-76
2023/07/06 05:32:10;;;;;;;9.82;2.97;;;19.50;74.90;;;;;;5043562;28;20100;-75
2023/07/06 05:34:36;;;;;;;5.22;2.55;;;19.50;74.90;;;;;;5045278;28;20071;-74
2023/07/06 05:37:03;;;;;;;9.23;2.50;;;19.50;75.00;;;;;;5040426;28;20033;-76
2023/07/06 05:39:29;;;;;;;5.25;2.30;;;19.50;75.00;;;;;;5036135;28;20482;-74
2023/07/06 05:41:54;;;;;;;5.35;2.42;;;19.50;75.00;;;;;;5039959;28;20470;-76
2023/07/06 05:44:20;;;;;;;6.43;2.95;;;19.50;75.00;;;;;;5038762;28;20029;-75
2023/07/06 05:46:46;;;;;;;7.28;2.67;;;19.50;75.00;;;;;;5043752;28;20021;-75
2023/07/06 05:49:11;;;;;;;6.57;2.90;;;19.60;75.20;;;;;;5042983;28;20025;-75
2023/07/06 05:51:37;;;;;;;4.90;2.38;;;19.60;75.20;;;;;;5043188;28;20070;-76
2023/07/06 05:54:03;;;;;;;7.47;2.80;;;19.60;75.20;;;;;;5043381;28;20033;-76
2023/07/06 05:56:30;;;;;;;9.13;3.00;;;19.60;75.20;;;;;;5039523;28;20048;-76
2023/07/06 05:58:59;;;;;;;8.40;3.00;;;19.60;75.30;;;;;;5039098;28;20045;-75
2023/07/06 06:01:25;;;;;;;11.77;2.60;;;19.60;75.40;;;;;;5042918;28;20084;-76
2023/07/06 06:03:51;;;;;;;2.90;2.00;;;19.60;75.40;;;;;;5043220;28;20108;-75
2023/07/06 06:06:20;;;;;;;9.75;3.05;;;19.60;75.50;;;;;;5040548;28;20112;-76
2023/07/06 06:08:45;;;;;;;7.65;2.72;;;19.60;75.60;;;;;;5042839;28;20497;-76
2023/07/06 06:11:11;;;;;;;9.05;3.10;;;19.60;75.60;;;;;;5039551;28;20021;-75
2023/07/06 06:13:37;;;;;;;7.28;2.95;;;19.60;76.40;;;;;;5044748;28;20037;-76
2023/07/06 06:16:03;;;;;;;4.35;2.50;;;19.60;75.70;;;;;;5041314;28;20491;-76
2023/07/06 06:18:29;;;;;;;11.88;2.60;;;19.70;75.80;;;;;;5041803;28;20034;-76
2023/07/06 06:20:58;;;;;;;5.72;2.85;;;19.60;75.80;;;;;;5050111;28;20374;-75
2023/07/06 06:23:24;;;;;;;10.32;3.22;;;19.70;75.90;;;;;;5057701;28;20041;-75
2023/07/06 06:25:49;;;;;;;14.77;3.75;;;19.60;76.30;;;;;;5064237;28;20485;-75
2023/07/06 06:28:16;;;;;;;15.63;3.38;;;19.70;76.10;;;;;;5063496;28;20035;-75
2023/07/06 06:30:42;;;;;;;9.85;3.45;;;19.70;76.30;;;;;;5055497;28;20033;-75
2023/07/06 06:33:07;;;;;;;9.80;3.08;;;19.70;76.60;;;;;;5056630;28;20078;-76
2023/07/06 06:35:33;;;;;;;10.45;3.60;;;19.70;76.50;;;;;;5056435;28;20033;-76
2023/07/06 06:38:03;;;;;;;7.25;3.63;;;19.70;76.60;;;;;;5054903;28;20033;-75
2023/07/06 06:40:30;;;;;;;8.27;3.45;;;19.70;76.50;;;;;;5057649;28;20385;-76
2023/07/06 06:42:57;;;;;;;7.60;3.70;;;19.70;76.60;;;;;;5065115;28;20392;-79
2023/07/06 06:45:23;;;;;;;10.18;3.72;;;19.70;77.10;;;;;;5056778;28;20116;-79
2023/07/06 06:47:50;;;;;;;9.25;3.50;;;19.60;76.10;;;;;;5055633;28;20497;-75
2023/07/06 06:50:19;;;;;;;9.15;3.95;;;19.50;76.10;;;;;;5053135;28;20099;-76
2023/07/06 06:52:46;;;;;;;11.80;4.40;;;19.50;76.50;;;;;;5057197;28;20462;-76
2023/07/06 06:55:13;;;;;;;7.85;4.43;;;19.60;76.60;;;;;;5055670;28;20132;-76
2023/07/06 06:57:38;;;;;;;13.52;5.60;;;19.60;77.50;;;;;;5059403;28;20060;-75
2023/07/06 07:00:06;;;;;;;16.55;6.57;;;19.60;77.10;;;;;;5050234;28;20028;-76
2023/07/06 07:02:32;;;;;;;13.18;5.25;;;19.70;76.80;;;;;;5054963;28;20033;-76
2023/07/06 07:05:00;;;;;;;11.40;4.93;;;19.70;76.90;;;;;;5054154;28;20032;-76
2023/07/06 07:07:26;;;;;;;19.48;4.78;;;19.60;76.90;;;;;;5056530;28;20025;-76
2023/07/06 07:09:52;;;;;;;1504.30;144.48;;;19.70;76.90;;;;;;5052470;28;20137;-76
2023/07/06 07:12:18;;;;;;;1999.90;235.38;;;19.70;77.10;;;;;;5052012;28;20028;-76
2023/07/06 07:14:45;;;;;;;37.30;15.98;;;19.70;76.90;;;;;;5054880;28;20029;-76
2023/07/06 07:17:12;;;;;;;17.65;9.40;;;19.70;76.90;;;;;;5042519;28;20033;-76
2023/07/06 07:19:39;;;;;;;29.60;11.48;;;19.80;77.00;;;;;;5058155;28;20039;-76
2023/07/06 07:22:06;;;;;;;22.23;11.05;;;19.80;77.00;;;;;;5056824;28;20033;-76
2023/07/06 07:24:32;;;;;;;24.52;12.85;;;19.80;77.00;;;;;;5053707;28;20528;-76
2023/07/06 07:27:01;;;;;;;35.88;13.77;;;19.80;77.10;;;;;;5058936;28;20048;-76
2023/07/06 07:29:27;;;;;;;22.95;12.35;;;19.80;77.30;;;;;;5066179;28;20085;-76
2023/07/06 07:31:52;;;;;;;56.28;17.45;;;19.80;77.30;;;;;;5057384;28;20033;-76
2023/07/06 07:34:19;;;;;;;41.75;15.38;;;19.80;77.20;;;;;;5066424;28;20465;-76
2023/07/06 07:36:45;;;;;;;37.97;13.15;;;19.80;77.30;;;;;;5058162;28;20083;-76
2023/07/06 07:39:11;;;;;;;37.40;15.18;;;19.90;77.30;;;;;;5063054;28;20037;-76
2023/07/06 07:41:37;;;;;;;34.25;11.77;;;19.90;77.40;;;;;;5066377;28;20032;-77
2023/07/06 07:44:02;;;;;;;22.60;9.32;;;19.80;77.30;;;;;;5065214;28;20024;-76
2023/07/06 07:46:29;;;;;;;32.90;11.40;;;19.90;77.60;;;;;;5064134;28;20043;-76
2023/07/06 07:48:56;;;;;;;22.55;9.40;;;19.80;77.50;;;;;;5061031;28;20025;-76
2023/07/06 07:51:23;;;;;;;20.25;8.88;;;19.80;77.80;;;;;;5058625;28;20025;-77
2023/07/06 07:53:52;;;;;;;26.30;11.23;;;19.90;78.50;;;;;;5058779;28;20036;-76
2023/07/06 07:56:18;;;;;;;25.25;10.15;;;19.90;78.10;;;;;;5059703;28;20123;-76
2023/07/06 07:58:47;;;;;;;17.15;7.68;;;19.90;78.20;;;;;;5065529;28;20029;-76
2023/07/06 08:01:19;;;;;;;39.45;9.30;;;19.90;78.10;;;;;;5068296;28;20098;-77
2023/07/06 08:03:44;;;;;;;13.23;7.15;;;19.90;78.30;;;;;;5060057;28;20086;-77
2023/07/06 08:06:16;;;;;;;13.50;6.38;;;19.90;80.00;;;;;;5059771;28;20674;-76
2023/07/06 08:08:43;;;;;;;9.45;5.63;;;19.90;78.70;;;;;;5059372;28;20029;-76
2023/07/06 08:11:15;;;;;;;21.60;6.45;;;19.90;78.50;;;;;;5057671;28;20079;-77
2023/07/06 08:13:44;;;;;;;15.38;6.88;;;19.90;79.60;;;;;;5064050;28;20504;-76
2023/07/06 08:16:10;;;;;;;15.18;7.55;;;19.90;78.80;;;;;;5063837;28;20072;-76
2023/07/06 08:18:36;;;;;;;13.80;5.93;;;20.00;79.30;;;;;;5063713;28;20409;-76
2023/07/06 08:21:03;;;;;;;15.27;7.03;;;20.00;78.60;;;;;;5063358;28;20029;-76
2023/07/06 08:23:29;;;;;;;15.50;7.15;;;20.00;78.50;;;;;;5062672;28;20040;-76
2023/07/06 08:25:57;;;;;;;13.15;7.10;;;20.00;78.90;;;;;;5060253;28;20373;-76
2023/07/06 08:28:29;;;;;;;13.10;6.18;;;20.00;79.40;;;;;;5062291;28;20101;-76
2023/07/06 08:30:55;;;;;;;18.20;6.93;;;20.00;78.70;;;;;;5063235;28;20082;-76
2023/07/06 08:33:21;;;;;;;35.17;9.75;;;20.00;78.40;;;;;;5064761;28;20496;-77
2023/07/06 08:35:47;;;;;;;14.90;9.43;;;20.00;78.70;;;;;;5065253;28;20052;-76
2023/07/06 08:38:14;;;;;;;12.20;7.60;;;20.00;78.60;;;;;;5063782;28;20017;-76
2023/07/06 08:40:42;;;;;;;21.52;10.30;;;20.00;78.70;;;;;;5068920;28;20071;-76
2023/07/06 08:43:16;;;;;;;23.77;9.27;;;20.00;78.90;;;;;;5062373;28;20013;-76
2023/07/06 08:45:45;;;;;;;14.23;6.75;;;20.00;79.00;;;;;;5066869;28;20025;-76
2023/07/06 08:48:19;;;;;;;16.60;8.75;;;20.00;78.90;;;;;;5063707;28;20025;-76
2023/07/06 08:50:51;;;;;;;12.00;7.28;;;20.00;79.40;;;;;;5065557;28;20024;-76
2023/07/06 08:53:20;;;;;;;24.08;8.35;;;20.00;79.20;;;;;;5063891;28;20394;-76
2023/07/06 08:55:49;;;;;;;17.27;8.77;;;20.00;79.20;;;;;;5062138;28;20036;-76
2023/07/06 08:58:24;;;;;;;18.05;8.48;;;20.00;79.10;;;;;;5062605;28;20024;-77
2023/07/06 09:00:51;;;;;;;16.20;8.70;;;20.00;79.10;;;;;;5060847;28;20025;-77
2023/07/06 09:03:17;;;;;;;23.98;8.18;;;20.00;79.00;;;;;;5060245;28;20087;-75
2023/07/06 09:05:46;;;;;;;15.23;7.55;;;20.00;78.80;;;;;;5061486;28;20024;-77
2023/07/06 09:08:15;;;;;;;21.50;7.15;;;20.00;78.70;;;;;;5061959;28;20020;-77
2023/07/06 09:10:41;;;;;;;10.40;5.03;;;20.00;78.70;;;;;;5060730;28;20028;-77
2023/07/06 09:13:24;;;;;;;9.52;4.70;;;20.10;78.90;;;;;;5061170;28;20403;-77
2023/07/06 09:16:03;;;;;;;9.43;5.13;;;20.00;78.90;;;;;;5064898;28;20119;-76
2023/07/06 09:18:31;;;;;;;12.57;4.45;;;20.00;78.80;;;;;;5064957;28;20025;-77
2023/07/06 09:20:59;;;;;;;9.80;5.43;;;20.00;78.90;;;;;;5052198;28;20501;-76
2023/07/06 09:23:25;;;;;;;8.40;5.00;;;20.00;78.70;;;;;;5039018;28;20704;-76
2023/07/06 09:25:53;;;;;;;1806.47;173.80;;;20.00;78.70;;;;;;5037779;28;20105;-76
2023/07/06 09:28:29;;;;;;;102.35;9.20;;;20.00;78.60;;;;;;5040504;28;20037;-76
2023/07/06 09:31:20;;;;;;;10.10;4.65;;;20.00;78.60;;;;;;5040067;28;20025;-76
2023/07/06 09:33:50;;;;;;;99.90;11.93;;;20.00;79.30;;;;;;5037791;28;20481;-76
2023/07/06 09:36:25;;;;;;;419.95;38.10;;;20.00;78.50;;;;;;5038304;28;20076;-76
2023/07/06 09:38:51;;;;;;;935.13;77.80;;;20.00;78.50;;;;;;5038205;28;20029;-80
2023/07/06 09:41:27;;;;;;;13.20;8.45;;;20.10;78.50;;;;;;5043639;28;20025;-76
2023/07/06 09:43:57;;;;;;;14.23;6.75;;;20.00;78.40;;;;;;5027058;28;20029;-76
2023/07/06 09:46:31;;;;;;;17.83;9.00;;;20.10;78.40;;;;;;5040788;28;20028;-83
2023/07/06 09:48:57;;;;;;;22.55;6.28;;;20.10;78.40;;;;;;5020719;28;20032;-86
2023/07/06 09:51:43;;;;;;;24.05;6.43;;;20.10;77.60;;;;;;5018706;28;20024;-86
2023/07/06 09:54:17;;;;;;;22.95;5.47;;;20.20;77.10;;;;;;5018369;28;20069;-86
2023/07/06 09:56:43;;;;;;;21.17;4.28;;;20.20;76.50;;;;;;5029722;28;20036;-86
2023/07/06 09:59:11;;;;;;;13.63;4.85;;;20.20;75.40;;;;;;5015099;28;20064;-82
2023/07/06 10:02:24;;;;;;;7.10;3.25;;;20.20;75.90;;;;;;5035326;28;20033;-76
2023/07/06 10:05:19;;;;;;;7.70;3.42;;;20.20;75.10;;;;;;4912344;29;20058;-77
2023/07/06 10:07:58;;;;;;;7.32;3.97;;;20.20;76.00;;;;;;5031893;28;20417;-76
2023/07/06 10:10:30;;;;;;;6.22;2.78;;;20.20;76.40;;;;;;5031743;28;20101;-76
2023/07/06 10:13:08;;;;;;;9.02;4.82;;;20.20;76.70;;;;;;5037249;28;20036;-76
2023/07/06 10:15:53;;;;;;;10.73;3.90;;;20.20;76.80;;;;;;5039431;28;20025;-76
2023/07/06 10:18:33;;;;;;;8.80;2.97;;;20.20;77.00;;;;;;5033206;28;20048;-76
2023/07/06 10:21:08;;;;;;;9.30;4.32;;;20.20;77.00;;;;;;5047612;28;20029;-76
2023/07/06 10:23:46;;;;;;;12.32;2.95;;;20.20;77.00;;;;;;5058258;28;20021;-76
2023/07/06 10:26:32;;;;;;;5.63;3.78;;;20.20;77.20;;;;;;5060550;28;20017;-76
2023/07/06 10:28:58;;;;;;;5.25;3.10;;;20.20;77.20;;;;;;5058877;28;20036;-75
2023/07/06 10:31:42;;;;;;;8.35;2.75;;;20.20;77.20;;;;;;5056918;28;20043;-76
2023/07/06 10:34:23;;;;;;;9.35;3.90;;;20.20;77.40;;;;;;5055171;28;20021;-76
2023/07/06 10:36:49;;;;;;;4.28;2.55;;;20.20;77.40;;;;;;5056455;28;20029;-76
2023/07/06 10:39:23;;;;;;;6.82;2.80;;;20.20;77.20;;;;;;5057195;28;20070;-76
2023/07/06 10:42:00;;;;;;;5.13;2.95;;;20.20;77.30;;;;;;5058859;28;20425;-76
2023/07/06 10:44:43;;;;;;;4.32;2.42;;;20.30;77.40;;;;;;5061630;28;20194;-76
2023/07/06 10:47:33;;;;;;;5.45;3.45;;;20.20;77.30;;;;;;5057321;28;20039;-76
2023/07/06 10:50:07;;;;;;;5.18;3.17;;;20.20;77.30;;;;;;5049869;28;20044;-76
2023/07/06 10:52:37;;;;;;;5.88;2.58;;;20.20;77.40;;;;;;5061392;28;20020;-75
2023/07/06 10:55:18;;;;;;;5.88;2.45;;;20.20;77.40;;;;;;5060740;28;20021;-75
2023/07/06 10:58:21;;;;;;;7.30;3.17;;;20.20;77.60;;;;;;5063813;28;20044;-76
2023/07/06 11:00:47;;;;;;;9.48;3.20;;;20.20;77.40;;;;;;5059224;28;20381;-76
2023/07/06 11:03:17;;;;;;;4.30;2.78;;;20.20;77.50;;;;;;5062254;28;20017;-79
2023/07/06 11:05:53;;;;;;;;;;;20.30;73.50;;;;;;5066712;28;20020;-82
2023/07/06 11:08:58;;;;;;;8.85;2.88;;;20.60;70.00;;;;;;5043983;28;20444;-80
2023/07/06 11:11:27;;;;;;;5.00;2.15;;;20.70;69.40;;;;;;5059345;28;20131;-79
2023/07/06 11:13:53;;;;;;;3.67;2.33;;;20.80;68.80;;;;;;5064097;28;20032;-78
2023/07/06 11:16:47;;;;;;;3.72;2.45;;;20.80;69.80;;;;;;5062131;28;20041;-77
2023/07/06 11:19:19;;;;;;;4.97;2.38;;;20.80;68.90;;;;;;5061024;28;20013;-76
2023/07/06 11:21:51;;;;;;;4.65;2.60;;;20.80;68.50;;;;;;5050939;28;20037;-76
2023/07/06 11:24:21;;;;;;;2.97;2.45;;;20.90;69.60;;;;;;5043184;28;20088;-77
2023/07/06 11:27:02;;;;;;;5.50;2.53;;;20.90;70.60;;;;;;5044361;28;20109;-77
2023/07/06 11:29:30;;;;;;;4.50;2.20;;;20.90;69.90;;;;;;5046843;28;20044;-76
2023/07/06 11:32:28;;;;;;;4.78;2.42;;;20.90;69.50;;;;;;5038774;28;20021;-75
2023/07/06 11:35:16;;;;;;;11.32;2.95;;;21.10;68.90;;;;;;5028504;28;20029;-76
2023/07/06 11:37:47;;;;;;;2.60;1.65;;;21.00;66.80;;;;;;5047365;28;20033;-78
2023/07/06 11:40:34;;;;;;;5.18;2.53;;;21.10;67.80;;;;;;5043792;28;20068;-76
2023/07/06 11:43:05;;;;;;;11.32;3.15;;;21.00;67.20;;;;;;5043450;28;20489;-76
2023/07/06 11:45:43;;;;;;;7.10;2.47;;;21.10;68.30;;;;;;5043618;28;20025;-76
2023/07/06 11:48:37;;;;;;;5.07;2.83;;;21.10;66.50;;;;;;5038788;28;20031;-78
2023/07/06 11:51:04;;;;;;;5.80;2.08;;;21.00;67.70;;;;;;5040997;28;20033;-76
2023/07/06 11:53:44;;;;;;;5.68;2.45;;;21.00;66.60;;;;;;5028027;28;20051;-77
2023/07/06 11:56:32;;;;;;;2.90;2.30;;;21.10;64.80;;;;;;5046340;28;20440;-77
2023/07/06 11:59:01;;;;;;;4.70;2.70;;;21.10;64.60;;;;;;5042826;28;20126;-76
2023/07/06 12:01:40;;;;;;;4.75;2.88;;;21.00;64.10;;;;;;5044898;28;20076;-77
2023/07/06 12:04:18;;;;;;;6.30;3.22;;;21.00;64.10;;;;;;5041609;28;20405;-79
2023/07/06 12:06:45;;;;;;;4.10;2.45;;;21.00;63.50;;;;;;5044698;28;20025;-75
2023/07/06 12:09:20;;;;;;;5.25;2.70;;;21.00;63.30;;;;;;5044453;28;20117;-77
2023/07/06 12:12:03;;;;;;;6.28;2.65;;;21.00;65.60;;;;;;5041836;28;20017;-75
2023/07/06 12:14:30;;;;;;;6.78;3.20;;;21.00;66.40;;;;;;5041259;28;20041;-77
2023/07/06 12:16:58;;;;;;;10.82;2.85;;;21.10;66.20;;;;;;5049231;28;20622;-75
2023/07/06 12:19:24;;;;;;;5.90;2.70;;;21.20;66.50;;;;;;5045550;28;20034;-75
2023/07/06 12:21:55;;;;;;;5.00;2.30;;;21.20;66.50;;;;;;5067600;28;20039;-76
2023/07/06 12:24:23;;;;;;;9.43;3.10;;;21.10;65.50;;;;;;5069113;28;20051;-76
2023/07/06 12:27:01;;;;;;;7.13;2.90;;;21.00;66.40;;;;;;5064432;28;20546;-76
2023/07/06 12:29:31;;;;;;;11.55;3.58;;;20.90;66.50;;;;;;5069079;28;20031;-76
2023/07/06 12:32:10;;;;;;;5.55;2.40;;;20.90;65.20;;;;;;5069034;28;20400;-76
2023/07/06 12:34:40;;;;;;;7.50;2.67;;;20.80;65.80;;;;;;5062758;28;20434;-76
2023/07/06 12:37:11;;;;;;;4.95;2.88;;;20.80;65.40;;;;;;5063935;28;20286;-76
2023/07/06 12:39:40;;;;;;;7.90;2.72;;;20.90;65.60;;;;;;5065238;28;20032;-76
2023/07/06 12:42:12;;;;;;;4.20;3.00;;;20.90;65.60;;;;;;5060040;28;20031;-77
2023/07/06 12:44:41;;;;;;;5.15;2.85;;;20.90;65.50;;;;;;5064704;28;20504;-77
2023/07/06 12:47:37;;;;;;;5.90;2.58;;;20.90;65.20;;;;;;5068146;28;20119;-77
2023/07/06 12:50:05;;;;;;;17.63;3.60;;;20.90;65.50;;;;;;5061212;28;20044;-76
2023/07/06 12:52:32;;;;;;;10.60;3.10;;;20.90;65.10;;;;;;5066739;28;20828;-79
2023/07/06 12:54:58;;;;;;;5.80;2.70;;;20.90;66.50;;;;;;5063158;28;20473;-90
2023/07/06 12:57:28;;;;;;;6.03;2.72;;;21.10;67.10;;;;;;5052152;28;20082;-91
2023/07/06 13:00:08;;;;;;;4.63;2.67;;;21.10;64.60;;;;;;5059927;28;20025;-91